Time;durP1;ratioP1;P1;durP2;ratioP2;P2;SDS_P1;SDS_P2;PMS_P1;PMS_P2;Temp;Humidity;BMP_temperature;BMP_pressure;BME280_temperature;BME280_humidity;BME280_pressure;Samples;Min_cycle;Max_cycle;Signal;HPM_P1;HPM_P2
2022/08/19 00:00:14;;;;;;;7.37;3.70;;;19.50;99.90;;;;;;5043367;28;20254;-81
2022/08/19 00:02:41;;;;;;;5.37;3.57;;;19.50;99.90;;;;;;5042098;28;20202;-82
2022/08/19 00:05:08;;;;;;;4.57;3.90;;;19.40;99.90;;;;;;5041410;28;20423;-84
2022/08/19 00:07:34;;;;;;;4.50;2.73;;;19.40;99.90;;;;;;5041462;28;20492;-84
2022/08/19 00:09:59;;;;;;;4.80;2.80;;;19.40;99.90;;;;;;5042223;28;20808;-84
2022/08/19 00:12:25;;;;;;;4.37;3.20;;;19.50;99.90;;;;;;5043022;28;20852;-81
2022/08/19 00:14:50;;;;;;;4.17;3.53;;;19.50;99.90;;;;;;5041106;28;20221;-82
2022/08/19 00:17:16;;;;;;;4.97;4.10;;;19.50;99.90;;;;;;5042385;28;20662;-82
2022/08/19 00:19:41;;;;;;;6.30;4.13;;;19.40;99.90;;;;;;5042378;28;20179;-85
2022/08/19 00:22:08;;;;;;;4.63;3.63;;;19.40;99.90;;;;;;5041002;28;20240;-82
2022/08/19 00:24:35;;;;;;;4.20;3.60;;;19.40;99.90;;;;;;5043027;28;20238;-82
2022/08/19 00:27:01;;;;;;;5.50;4.50;;;19.50;99.90;;;;;;5041958;28;20472;-82
2022/08/19 00:29:27;;;;;;;4.60;3.40;;;19.40;99.90;;;;;;5040888;28;20424;-83
2022/08/19 00:31:56;;;;;;;5.87;4.30;;;19.40;99.90;;;;;;5025890;28;20446;-82
2022/08/19 00:34:22;;;;;;;6.13;4.57;;;19.40;99.90;;;;;;5021821;28;20425;-83
2022/08/19 00:36:51;;;;;;;6.47;4.20;;;19.40;99.90;;;;;;5022862;28;20423;-82
2022/08/19 00:39:17;;;;;;;9.17;6.07;;;19.40;99.90;;;;;;5003931;28;21196;-83
2022/08/19 00:41:44;;;;;;;8.43;6.07;;;19.40;99.90;;;;;;5031236;28;20429;-82
2022/08/19 00:44:19;;;;;;;8.40;5.30;;;19.40;99.90;;;;;;5033080;28;20659;-83
2022/08/19 00:46:47;;;;;;;10.33;6.67;;;19.40;99.90;;;;;;5032874;28;20438;-82
2022/08/19 00:49:22;;;;;;;7.70;5.77;;;19.40;99.90;;;;;;5033128;28;20471;-82
2022/08/19 00:51:52;;;;;;;8.23;5.40;;;19.40;99.90;;;;;;5033095;28;20405;-83
2022/08/19 00:54:19;;;;;;;7.67;5.97;;;19.40;99.90;;;;;;5032979;28;20425;-82
2022/08/19 00:56:46;;;;;;;7.60;5.80;;;19.40;99.90;;;;;;5032957;28;20922;-82
2022/08/19 00:59:12;;;;;;;9.80;7.00;;;19.40;99.90;;;;;;5032940;28;20413;-82
2022/08/19 01:01:40;;;;;;;7.67;6.33;;;19.40;99.90;;;;;;5036987;28;20409;-83
2022/08/19 01:04:06;;;;;;;10.97;6.00;;;19.40;99.90;;;;;;5039516;28;20484;-83
2022/08/19 01:06:33;;;;;;;9.47;5.80;;;19.40;99.90;;;;;;5039561;28;20413;-82
2022/08/19 01:08:59;;;;;;;6.93;4.97;;;19.40;99.90;;;;;;5039594;28;20408;-82
2022/08/19 01:11:26;;;;;;;10.20;7.03;;;19.40;99.90;;;;;;5039464;28;20408;-82
2022/08/19 01:13:53;;;;;;;8.17;7.33;;;19.40;99.90;;;;;;5039557;28;20914;-82
2022/08/19 01:16:23;;;;;;;11.23;7.90;;;19.40;99.90;;;;;;5039300;28;20832;-83
2022/08/19 01:18:49;;;;;;;8.60;6.33;;;19.40;99.90;;;;;;5039476;28;20861;-82
2022/08/19 01:21:41;;;;;;;9.70;7.90;;;19.40;99.90;;;;;;5039329;28;20461;-82
2022/08/19 01:24:07;;;;;;;9.20;6.30;;;19.40;99.90;;;;;;5039390;28;20476;-82
2022/08/19 01:26:39;;;;;;;9.10;6.00;;;19.50;99.90;;;;;;5039405;28;20511;-83
2022/08/19 01:29:07;;;;;;;9.20;6.50;;;19.50;99.90;;;;;;5039277;28;20260;-82
2022/08/19 01:31:33;;;;;;;8.10;6.30;;;19.50;99.90;;;;;;5038783;28;20973;-82
2022/08/19 01:34:01;;;;;;;8.50;5.93;;;19.50;99.90;;;;;;5039307;28;20421;-82
2022/08/19 01:36:47;;;;;;;11.63;8.50;;;19.40;99.90;;;;;;5039331;28;20780;-83
2022/08/19 01:39:23;;;;;;;8.03;5.87;;;19.50;99.90;;;;;;5039276;28;20455;-82
2022/08/19 01:41:49;;;;;;;8.60;6.70;;;19.50;99.90;;;;;;5039210;28;20795;-83
2022/08/19 01:44:15;;;;;;;12.00;7.50;;;19.50;99.90;;;;;;5039267;28;20523;-82
2022/08/19 01:46:43;;;;;;;13.47;7.67;;;19.50;99.90;;;;;;5038797;28;20409;-82
2022/08/19 01:49:09;;;;;;;9.43;7.00;;;19.50;99.90;;;;;;5039180;28;20426;-83
2022/08/19 01:51:36;;;;;;;9.70;7.20;;;19.50;99.90;;;;;;5039152;28;20909;-82
2022/08/19 01:54:01;;;;;;;11.20;7.60;;;19.50;99.90;;;;;;5039291;28;20508;-82
2022/08/19 01:56:27;;;;;;;11.90;6.90;;;19.50;99.90;;;;;;5039108;28;20509;-82
2022/08/19 01:59:00;;;;;;;11.13;6.93;;;19.40;99.90;;;;;;5021201;28;20179;-82
2022/08/19 02:01:25;;;;;;;9.37;6.93;;;19.40;99.90;;;;;;5038763;28;20174;-82
2022/08/19 02:03:53;;;;;;;11.60;7.43;;;19.40;99.90;;;;;;5039023;28;21146;-82
2022/08/19 02:06:18;;;;;;;12.37;8.30;;;19.30;99.90;;;;;;5039032;28;20174;-82
2022/08/19 02:08:45;;;;;;;11.53;8.50;;;19.30;99.90;;;;;;5039011;28;20776;-82
2022/08/19 02:11:22;;;;;;;14.60;9.73;;;19.30;99.90;;;;;;5038954;28;20170;-81
2022/08/19 02:13:49;;;;;;;12.33;7.40;;;19.20;99.90;;;;;;5035860;28;20422;-82
2022/08/19 02:16:15;;;;;;;13.83;8.30;;;19.20;99.90;;;;;;5035526;28;20413;-81
2022/08/19 02:18:41;;;;;;;11.90;9.20;;;19.20;99.90;;;;;;5035719;28;20497;-82
2022/08/19 02:21:07;;;;;;;13.73;8.00;;;19.10;99.90;;;;;;5035720;28;20499;-82
2022/08/19 02:23:32;;;;;;;12.13;8.80;;;19.10;99.90;;;;;;5035600;28;20259;-82
2022/08/19 02:25:58;;;;;;;10.60;7.10;;;19.10;99.90;;;;;;5035644;28;20228;-81
2022/08/19 02:28:23;;;;;;;12.17;9.27;;;19.10;99.90;;;;;;5035660;28;20170;-81
2022/08/19 02:30:49;;;;;;;9.27;8.10;;;19.20;99.90;;;;;;5034965;28;20268;-82
2022/08/19 02:33:15;;;;;;;11.13;7.50;;;19.20;99.90;;;;;;5035533;28;20183;-81
2022/08/19 02:35:43;;;;;;;10.67;7.93;;;19.20;99.90;;;;;;5035360;28;20238;-81
2022/08/19 02:38:26;;;;;;;11.43;8.13;;;19.20;99.90;;;;;;5035401;28;20417;-81
2022/08/19 02:41:03;;;;;;;14.00;9.13;;;19.20;99.90;;;;;;5035398;28;20414;-82
2022/08/19 02:43:31;;;;;;;11.93;7.43;;;19.20;99.90;;;;;;5035334;28;20464;-82
2022/08/19 02:46:00;;;;;;;8.37;7.00;;;19.20;99.90;;;;;;5034872;28;20406;-82
2022/08/19 02:48:25;;;;;;;11.63;8.53;;;19.20;99.90;;;;;;5035290;28;20774;-82
2022/08/19 02:50:54;;;;;;;10.27;8.13;;;19.30;99.90;;;;;;5035867;28;20412;-82
2022/08/19 02:53:26;;;;;;;9.20;6.97;;;19.30;99.90;;;;;;5046233;28;20181;-82
2022/08/19 02:55:52;;;;;;;9.87;7.43;;;19.30;99.90;;;;;;5035228;28;20492;-81
2022/08/19 02:58:18;;;;;;;8.27;6.93;;;19.30;99.90;;;;;;5036546;28;20445;-82
2022/08/19 03:00:47;;;;;;;9.47;6.47;;;19.30;99.90;;;;;;5034959;28;20170;-81
2022/08/19 03:03:13;;;;;;;10.67;6.50;;;19.30;99.90;;;;;;5035037;28;20535;-81
2022/08/19 03:05:39;;;;;;;9.20;7.23;;;19.30;99.90;;;;;;5034901;28;20409;-81
2022/08/19 03:08:05;;;;;;;8.47;6.70;;;19.30;99.90;;;;;;5034927;28;20257;-82
2022/08/19 03:10:31;;;;;;;7.13;6.40;;;19.30;99.90;;;;;;5034787;28;20989;-81
2022/08/19 03:12:57;;;;;;;11.03;6.53;;;19.40;99.90;;;;;;5034782;28;20429;-81
2022/08/19 03:15:23;;;;;;;10.33;7.17;;;19.30;99.90;;;;;;5034266;28;20403;-82
2022/08/19 03:17:51;;;;;;;9.50;7.20;;;19.30;99.90;;;;;;5034623;28;20182;-81
2022/08/19 03:20:16;;;;;;;8.03;6.70;;;19.30;99.90;;;;;;5034677;28;20209;-82
2022/08/19 03:22:42;;;;;;;8.13;6.50;;;19.40;99.90;;;;;;5034509;28;20880;-81
2022/08/19 03:25:07;;;;;;;9.20;6.17;;;19.40;99.90;;;;;;5034110;28;20526;-81
2022/08/19 03:27:33;;;;;;;8.63;6.30;;;19.30;99.90;;;;;;5034591;28;20181;-81
2022/08/19 03:29:59;;;;;;;11.53;6.77;;;19.20;99.90;;;;;;5034019;28;20196;-82
2022/08/19 03:32:24;;;;;;;8.60;5.90;;;19.20;99.90;;;;;;5034337;28;20686;-81
2022/08/19 03:34:50;;;;;;;9.03;7.27;;;19.20;99.90;;;;;;5034289;28;20174;-83
2022/08/19 03:37:16;;;;;;;12.10;8.10;;;19.20;99.90;;;;;;5034444;28;20192;-82
2022/08/19 03:39:42;;;;;;;8.30;5.73;;;19.20;99.90;;;;;;5034329;28;20414;-82
2022/08/19 03:42:12;;;;;;;10.37;6.80;;;19.20;99.90;;;;;;5034178;28;20735;-82
2022/08/19 03:44:37;;;;;;;8.33;6.40;;;19.20;99.90;;;;;;5033869;28;20257;-81
2022/08/19 03:47:03;;;;;;;9.57;6.47;;;19.30;99.90;;;;;;5034152;28;20487;-81
2022/08/19 03:49:32;;;;;;;10.53;7.50;;;19.20;99.90;;;;;;5034193;28;20172;-82
2022/08/19 03:52:02;;;;;;;10.10;7.00;;;19.20;99.90;;;;;;5033948;28;20534;-82
2022/08/19 03:54:28;;;;;;;8.97;6.70;;;19.20;99.90;;;;;;5032694;28;20771;-82
2022/08/19 03:57:00;;;;;;;11.63;7.17;;;19.20;99.90;;;;;;5033921;28;20468;-83
2022/08/19 03:59:29;;;;;;;8.30;6.53;;;19.20;99.90;;;;;;5033850;28;20818;-82
2022/08/19 04:01:57;;;;;;;10.00;7.70;;;19.20;99.90;;;;;;5033392;28;20421;-82
2022/08/19 04:04:24;;;;;;;9.27;6.40;;;19.30;99.90;;;;;;5033751;28;20808;-82
2022/08/19 04:06:51;;;;;;;10.30;5.87;;;19.20;99.90;;;;;;5033700;28;20762;-82
2022/08/19 04:09:16;;;;;;;15.03;7.00;;;19.10;99.90;;;;;;5033712;28;20421;-82
2022/08/19 04:11:54;;;;;;;14.40;8.33;;;19.20;99.90;;;;;;5033598;28;20432;-82
2022/08/19 04:14:23;;;;;;;10.93;7.33;;;19.10;99.90;;;;;;5033710;28;20174;-82
2022/08/19 04:16:53;;;;;;;17.40;9.10;;;19.10;99.90;;;;;;5033192;28;20425;-82
2022/08/19 04:19:22;;;;;;;16.10;9.77;;;19.10;99.90;;;;;;5033545;28;20467;-82
2022/08/19 04:21:50;;;;;;;11.87;8.77;;;19.10;99.90;;;;;;5033558;28;20420;-81
2022/08/19 04:24:16;;;;;;;12.73;9.00;;;19.10;99.90;;;;;;5015554;28;20490;-82
2022/08/19 04:26:41;;;;;;;12.37;9.70;;;19.10;99.90;;;;;;5033446;28;20413;-81
2022/08/19 04:29:10;;;;;;;16.80;9.27;;;19.10;99.90;;;;;;5033293;28;20166;-82
2022/08/19 04:31:36;;;;;;;14.50;8.50;;;19.10;99.90;;;;;;5032779;28;20311;-83
2022/08/19 04:34:06;;;;;;;14.57;8.83;;;19.10;99.90;;;;;;5033129;28;20938;-82
2022/08/19 04:36:36;;;;;;;12.97;7.77;;;19.10;99.90;;;;;;5032595;28;20182;-82
2022/08/19 04:39:06;;;;;;;11.17;6.80;;;19.60;99.90;;;;;;5033215;28;20506;-81
2022/08/19 04:44:17;;;;;;;13.53;8.07;;;20.10;99.90;;;;;;5033106;28;20489;-82
2022/08/19 04:46:43;;;;;;;12.73;7.20;;;20.30;99.90;;;;;;5032776;28;20408;-82
2022/08/19 04:49:09;;;;;;;14.80;8.10;;;20.20;99.90;;;;;;5033113;28;20420;-82
2022/08/19 04:51:36;;;;;;;11.07;8.23;;;20.30;99.90;;;;;;5033084;28;20738;-82
2022/08/19 04:54:03;;;;;;;11.10;7.17;;;20.40;99.90;;;;;;5032999;28;20168;-82
2022/08/19 04:56:29;;;;;;;11.80;8.27;;;20.40;99.90;;;;;;5032942;28;20409;-82
2022/08/19 04:58:55;;;;;;;12.17;7.30;;;20.10;99.90;;;;;;5033053;28;20922;-82
2022/08/19 05:01:25;;;;;;;10.90;7.70;;;20.30;99.90;;;;;;5032684;28;20592;-82
2022/08/19 05:03:52;;;;;;;12.53;7.73;;;20.20;99.90;;;;;;5032908;28;20964;-81
2022/08/19 05:06:22;;;;;;;11.80;7.07;;;20.20;99.90;;;;;;5032823;28;20419;-82
2022/08/19 05:08:48;;;;;;;13.17;7.83;;;20.00;99.90;;;;;;5032873;28;20417;-82
2022/08/19 05:11:20;;;;;;;10.00;7.43;;;20.00;99.90;;;;;;5014817;28;20435;-85
2022/08/19 05:13:48;;;;;;;10.27;7.23;;;20.00;99.90;;;;;;5032657;28;20441;-82
2022/08/19 05:16:18;;;;;;;12.37;7.00;;;19.90;99.90;;;;;;5031351;28;20412;-82
2022/08/19 05:24:14;;;;;;;14.00;7.50;;;19.70;99.90;;;;;;5032777;28;20472;-83
2022/08/19 05:26:42;;;;;;;16.83;9.13;;;19.20;99.90;;;;;;5032723;28;20555;-83
2022/08/19 05:29:08;;;;;;;16.60;8.03;;;19.10;99.90;;;;;;5032697;28;20452;-81
2022/08/19 05:31:35;;;;;;;11.10;8.47;;;19.00;99.90;;;;;;5032208;28;20976;-83
2022/08/19 05:34:03;;;;;;;12.80;9.47;;;18.90;99.90;;;;;;5032621;28;20940;-83
2022/08/19 05:36:35;;;;;;;15.33;8.30;;;18.80;99.90;;;;;;5032558;28;20869;-83
2022/08/19 05:39:02;;;;;;;13.80;9.30;;;18.80;99.90;;;;;;5032665;28;20486;-83
2022/08/19 05:41:29;;;;;;;15.67;9.57;;;18.80;99.90;;;;;;5032492;28;20413;-81
2022/08/19 05:43:55;;;;;;;16.00;9.33;;;18.80;99.90;;;;;;5032488;28;20467;-80
2022/08/19 05:46:22;;;;;;;15.63;9.23;;;18.80;99.90;;;;;;5032125;28;20411;-82
2022/08/19 05:48:48;;;;;;;12.40;8.90;;;18.80;99.90;;;;;;5036250;28;20519;-82
2022/08/19 05:51:14;;;;;;;17.00;11.37;;;18.80;99.90;;;;;;5036315;28;20828;-82
2022/08/19 05:53:39;;;;;;;15.43;10.30;;;18.80;99.90;;;;;;5036164;28;20464;-80
2022/08/19 05:56:07;;;;;;;15.07;9.53;;;18.80;99.90;;;;;;5036057;28;20177;-80
2022/08/19 05:58:33;;;;;;;14.10;9.20;;;18.80;99.90;;;;;;5036027;28;20209;-80
2022/08/19 06:01:04;;;;;;;13.03;8.53;;;18.80;99.90;;;;;;5035731;28;20508;-80
2022/08/19 06:03:30;;;;;;;15.40;10.70;;;18.80;99.90;;;;;;5036078;28;20511;-80
2022/08/19 06:05:56;;;;;;;14.13;9.80;;;18.80;99.90;;;;;;5034693;28;20785;-81
2022/08/19 06:08:21;;;;;;;12.73;9.20;;;18.90;99.90;;;;;;5035940;28;20417;-81
2022/08/19 06:10:47;;;;;;;14.83;9.90;;;18.90;99.90;;;;;;5035905;28;20320;-80
2022/08/19 06:13:12;;;;;;;16.90;10.03;;;18.90;99.90;;;;;;5035891;28;20181;-80
2022/08/19 06:15:38;;;;;;;12.43;8.47;;;19.00;99.90;;;;;;5035530;28;20194;-83
2022/08/19 06:18:03;;;;;;;15.13;11.27;;;18.90;99.90;;;;;;5035870;28;20534;-82
2022/08/19 06:20:29;;;;;;;16.63;10.23;;;18.90;99.90;;;;;;5035806;28;20174;-81
2022/08/19 06:22:54;;;;;;;12.70;9.30;;;19.00;99.90;;;;;;5035706;28;20204;-82
2022/08/19 06:25:20;;;;;;;16.67;9.83;;;19.00;99.90;;;;;;5036204;28;20178;-82
2022/08/19 06:27:46;;;;;;;12.30;8.63;;;19.00;99.90;;;;;;5035655;28;20225;-80
2022/08/19 06:30:12;;;;;;;18.80;11.07;;;19.10;99.90;;;;;;5035153;28;20185;-81
2022/08/19 06:32:37;;;;;;;14.83;9.93;;;19.10;99.90;;;;;;5035670;28;20182;-81
2022/08/19 06:35:04;;;;;;;14.13;9.83;;;19.20;99.90;;;;;;5036015;28;20494;-88
2022/08/19 06:37:29;;;;;;;16.40;11.10;;;19.10;99.90;;;;;;5035581;28;20163;-79
2022/08/19 06:39:55;;;;;;;14.27;10.83;;;19.20;99.90;;;;;;5035471;28;20427;-80
2022/08/19 06:42:20;;;;;;;17.63;10.10;;;19.20;99.90;;;;;;5035572;28;20202;-83
2022/08/19 06:44:49;;;;;;;16.43;9.50;;;19.30;99.90;;;;;;5035191;28;20634;-82
2022/08/19 06:47:20;;;;;;;14.60;9.60;;;19.20;99.90;;;;;;5035320;28;20183;-79
2022/08/19 06:49:46;;;;;;;18.57;10.33;;;19.30;99.90;;;;;;5035337;28;20504;-83
2022/08/19 06:52:12;;;;;;;17.07;10.70;;;19.30;99.90;;;;;;5035216;28;20851;-82
2022/08/19 06:54:39;;;;;;;14.77;9.77;;;19.40;99.90;;;;;;5035174;28;20642;-82
2022/08/19 06:57:06;;;;;;;12.57;9.17;;;19.40;99.90;;;;;;5035158;28;20422;-82
2022/08/19 06:59:32;;;;;;;14.37;8.57;;;19.40;99.90;;;;;;5033875;28;20416;-82
2022/08/19 07:02:00;;;;;;;15.10;10.83;;;19.40;99.90;;;;;;5034862;28;20413;-81
2022/08/19 07:04:31;;;;;;;15.20;10.77;;;19.40;99.90;;;;;;5034972;28;20833;-81
2022/08/19 07:07:05;;;;;;;14.57;8.87;;;19.40;99.90;;;;;;5034974;28;20429;-83
2022/08/19 07:09:31;;;;;;;15.40;9.43;;;19.60;99.90;;;;;;5034965;28;20581;-81
2022/08/19 07:11:57;;;;;;;16.77;9.37;;;19.80;99.90;;;;;;5034935;28;20497;-86
2022/08/19 07:14:26;;;;;;;16.83;10.80;;;19.90;99.90;;;;;;5034694;28;20171;-83
2022/08/19 07:16:54;;;;;;;10.17;7.07;;;19.90;99.90;;;;;;5040552;28;20645;-88
2022/08/19 07:19:22;;;;;;;15.70;9.77;;;19.90;99.90;;;;;;5038259;28;20473;-83
2022/08/19 07:21:52;;;;;;;14.20;9.30;;;20.00;99.90;;;;;;5035534;28;20416;-83
2022/08/19 07:24:19;;;;;;;15.80;8.50;;;20.10;99.90;;;;;;5034756;28;20834;-81
2022/08/19 07:26:45;;;;;;;12.03;8.60;;;20.10;99.90;;;;;;5034759;28;20467;-82
2022/08/19 07:29:11;;;;;;;15.87;9.27;;;20.10;99.90;;;;;;5034424;28;20419;-81
2022/08/19 07:31:37;;;;;;;11.70;8.80;;;20.10;99.90;;;;;;5034671;28;20481;-85
2022/08/19 07:34:08;;;;;;;11.83;8.57;;;20.10;99.90;;;;;;5016919;28;20433;-88
2022/08/19 07:36:36;;;;;;;13.80;9.60;;;20.00;99.90;;;;;;5034643;28;20414;-85
2022/08/19 07:39:06;;;;;;;12.03;9.07;;;20.10;99.90;;;;;;5038218;28;20417;-82
2022/08/19 07:41:33;;;;;;;16.80;9.60;;;20.30;99.90;;;;;;5034161;28;20425;-87
2022/08/19 07:44:03;;;;;;;11.40;8.03;;;20.30;99.90;;;;;;5034834;28;20466;-83
2022/08/19 07:46:30;;;;;;;19.97;11.33;;;20.20;99.90;;;;;;5036280;28;20538;-86
2022/08/19 07:48:56;;;;;;;17.17;11.43;;;20.20;99.90;;;;;;5034045;28;20428;-81
2022/08/19 07:51:22;;;;;;;17.63;10.67;;;20.20;99.90;;;;;;5034132;28;20779;-86
2022/08/19 07:53:50;;;;;;;16.47;10.70;;;20.10;99.90;;;;;;5034298;28;20841;-87
2022/08/19 07:56:18;;;;;;;13.27;8.93;;;20.10;99.90;;;;;;5034436;28;20184;-80
2022/08/19 07:58:46;;;;;;;13.30;9.80;;;20.10;99.90;;;;;;5033839;28;20440;-80
2022/08/19 08:01:16;;;;;;;14.93;11.63;;;20.20;99.90;;;;;;5033886;28;20458;-84
2022/08/19 08:09:11;;;;;;;11.80;9.10;;;20.00;99.90;;;;;;5032705;28;21045;-80
2022/08/19 08:11:48;;;;;;;11.60;9.17;;;20.00;99.90;;;;;;5033441;28;20412;-84
2022/08/19 08:14:16;;;;;;;13.30;7.97;;;20.00;99.90;;;;;;5033486;28;20928;-82
2022/08/19 08:16:43;;;;;;;12.77;8.30;;;20.00;99.90;;;;;;5033620;28;20402;-80
2022/08/19 08:19:09;;;;;;;11.30;7.80;;;19.80;99.90;;;;;;5033787;28;20418;-83
2022/08/19 08:21:35;;;;;;;11.10;7.50;;;19.80;99.90;;;;;;5033506;28;20415;-83
2022/08/19 08:24:00;;;;;;;11.50;8.53;;;19.80;99.90;;;;;;5033543;28;20473;-80
2022/08/19 08:26:26;;;;;;;14.20;8.23;;;19.80;99.90;;;;;;5033763;28;20185;-82
2022/08/19 08:28:53;;;;;;;11.87;8.90;;;19.70;99.90;;;;;;5033213;28;20182;-80
2022/08/19 08:31:19;;;;;;;15.43;9.70;;;19.80;99.90;;;;;;5033254;28;20560;-81
2022/08/19 08:33:46;;;;;;;9.30;6.83;;;19.90;99.90;;;;;;5033361;28;20426;-80
2022/08/19 08:36:13;;;;;;;12.80;8.93;;;19.80;99.90;;;;;;5033370;28;20751;-80
2022/08/19 08:38:41;;;;;;;11.00;7.80;;;19.80;99.90;;;;;;5040343;28;20421;-88
2022/08/19 08:41:47;;;;;;;10.17;8.23;;;19.90;99.90;;;;;;5054590;28;20457;-89
2022/08/19 08:44:20;;;;;;;9.13;7.00;;;19.90;99.90;;;;;;4970765;29;20483;-88
2022/08/19 08:46:53;;;;;;;9.87;7.30;;;20.00;99.90;;;;;;5036753;28;20428;-87
2022/08/19 08:49:53;;;;;;;7.33;5.50;;;20.00;99.90;;;;;;5034024;28;20421;-88
2022/08/19 08:52:23;;;;;;;8.53;5.40;;;20.00;99.90;;;;;;5033876;28;20423;-89
2022/08/19 08:54:52;;;;;;;11.33;7.40;;;20.00;99.90;;;;;;5033650;28;20417;-86
2022/08/19 08:57:51;;;;;;;9.10;5.93;;;20.00;99.90;;;;;;5033162;28;20774;-82
2022/08/19 09:00:37;;;;;;;9.33;6.57;;;19.90;99.90;;;;;;5025727;28;20418;-86
2022/08/19 09:03:09;;;;;;;13.57;7.17;;;19.90;99.90;;;;;;5032697;28;20476;-81
2022/08/19 09:05:59;;;;;;;12.87;7.77;;;19.90;99.90;;;;;;5032884;28;20533;-80
2022/08/19 09:08:46;;;;;;;9.37;6.10;;;19.90;99.90;;;;;;5032777;28;20409;-81
2022/08/19 09:11:22;;;;;;;9.53;6.37;;;19.80;99.90;;;;;;5032753;28;20416;-81
2022/08/19 09:14:12;;;;;;;10.13;6.43;;;19.90;99.90;;;;;;5032396;28;20420;-81
2022/08/19 09:16:40;;;;;;;9.33;6.67;;;19.90;99.90;;;;;;5032725;28;20470;-80
2022/08/19 09:19:10;;;;;;;11.57;6.70;;;20.00;99.90;;;;;;5032700;28;20492;-82
2022/08/19 09:21:36;;;;;;;10.93;7.13;;;19.90;99.90;;;;;;5033112;28;20417;-81
2022/08/19 09:24:03;;;;;;;11.17;7.07;;;19.90;99.90;;;;;;5036592;28;20528;-82
2022/08/19 09:26:30;;;;;;;12.43;7.23;;;20.00;99.90;;;;;;5036571;28;20413;-80
2022/08/19 09:28:56;;;;;;;14.27;8.93;;;20.00;99.90;;;;;;5036183;28;20509;-82
2022/08/19 09:31:24;;;;;;;11.33;6.33;;;20.00;99.90;;;;;;5036386;28;20464;-82
2022/08/19 09:33:51;;;;;;;11.20;7.80;;;20.00;99.90;;;;;;5036528;28;20427;-84
2022/08/19 09:36:19;;;;;;;8.57;6.70;;;20.00;99.90;;;;;;5036436;28;20500;-82
2022/08/19 09:38:45;;;;;;;12.47;8.07;;;20.00;99.90;;;;;;5036342;28;20425;-82
2022/08/19 09:41:15;;;;;;;14.83;9.13;;;20.00;99.90;;;;;;5036419;28;20917;-80
2022/08/19 09:43:43;;;;;;;12.90;8.50;;;20.00;99.90;;;;;;5036089;28;20272;-81
2022/08/19 09:46:09;;;;;;;12.53;8.23;;;20.10;99.90;;;;;;5036205;28;20413;-81
2022/08/19 09:48:36;;;;;;;12.67;8.90;;;20.10;99.90;;;;;;5036210;28;20424;-82
2022/08/19 09:51:10;;;;;;;12.73;7.60;;;20.20;99.90;;;;;;5036155;28;20237;-80
2022/08/19 09:53:37;;;;;;;12.67;8.03;;;20.20;99.90;;;;;;5036156;28;20924;-84
2022/08/19 09:56:05;;;;;;;9.10;6.60;;;20.20;99.90;;;;;;5036128;28;20416;-84
2022/08/19 09:58:32;;;;;;;11.73;7.57;;;20.30;99.90;;;;;;5035878;28;20409;-86
2022/08/19 10:00:59;;;;;;;11.40;8.60;;;20.30;99.90;;;;;;5035902;28;20441;-82
2022/08/19 10:03:26;;;;;;;16.03;9.43;;;20.30;99.90;;;;;;5035885;28;20478;-83
2022/08/19 10:05:52;;;;;;;11.47;7.37;;;20.40;99.90;;;;;;5035916;28;20423;-83
2022/08/19 10:08:30;;;;;;;13.70;7.90;;;20.40;99.90;;;;;;5035986;28;20425;-82
2022/08/19 10:10:57;;;;;;;12.60;8.47;;;20.40;99.90;;;;;;5035974;28;20832;-81
2022/08/19 10:13:25;;;;;;;11.43;8.57;;;20.40;99.90;;;;;;5035878;28;20416;-84
2022/08/19 10:15:54;;;;;;;13.23;8.80;;;20.40;99.90;;;;;;5035413;28;20402;-86
2022/08/19 10:18:21;;;;;;;10.13;6.83;;;20.30;99.90;;;;;;5035694;28;20435;-85
2022/08/19 10:20:48;;;;;;;13.37;8.87;;;20.30;99.90;;;;;;5035722;28;20450;-85
2022/08/19 10:23:14;;;;;;;12.47;8.27;;;20.30;99.90;;;;;;5035515;28;20612;-83
2022/08/19 10:25:40;;;;;;;13.87;7.37;;;20.20;99.90;;;;;;5035658;28;20422;-81
2022/08/19 10:28:07;;;;;;;11.73;7.67;;;20.20;99.90;;;;;;5035536;28;20423;-81
2022/08/19 10:30:33;;;;;;;10.13;7.63;;;20.30;99.90;;;;;;5035093;28;20284;-81
2022/08/19 10:32:59;;;;;;;11.77;7.70;;;20.30;99.90;;;;;;5016943;28;20931;-81
2022/08/19 10:35:27;;;;;;;11.03;8.10;;;20.30;99.90;;;;;;5034880;28;20453;-82
2022/08/19 10:37:53;;;;;;;9.40;7.30;;;20.30;99.90;;;;;;5035523;28;20181;-85
2022/08/19 10:40:18;;;;;;;10.93;7.00;;;20.40;99.90;;;;;;5035408;28;20929;-82
2022/08/19 10:42:44;;;;;;;11.60;7.10;;;20.40;99.90;;;;;;5035230;28;20223;-80
2022/08/19 10:45:10;;;;;;;9.43;6.67;;;20.40;99.90;;;;;;5034978;28;20170;-87
2022/08/19 10:47:38;;;;;;;11.50;7.00;;;20.40;99.90;;;;;;5035152;28;20261;-85
2022/08/19 10:52:49;;;;;;;10.10;6.57;;;20.60;99.90;;;;;;5035354;28;20418;-84
2022/08/19 10:58:03;;;;;;;10.57;6.63;;;20.80;99.90;;;;;;5035106;28;20506;-81
2022/08/19 11:00:50;;;;;;;9.77;6.90;;;20.70;99.90;;;;;;5034615;28;20465;-86
2022/08/19 11:03:14;;;;;;;10.60;6.40;;;20.70;99.90;;;;;;5034235;28;20533;-85
2022/08/19 11:05:41;;;;;;;11.10;6.90;;;20.80;99.90;;;;;;5034931;28;20442;-84
2022/08/19 11:08:11;;;;;;;8.73;6.37;;;20.90;99.90;;;;;;5034826;28;20658;-88
2022/08/19 11:10:37;;;;;;;10.53;5.83;;;20.90;99.90;;;;;;5034804;28;20499;-83
2022/08/19 11:13:02;;;;;;;8.27;5.57;;;20.80;99.90;;;;;;5034783;28;20967;-81
2022/08/19 11:15:29;;;;;;;9.50;6.90;;;20.70;99.90;;;;;;5034505;28;20639;-85
2022/08/19 11:17:55;;;;;;;10.30;7.37;;;20.60;99.90;;;;;;5034646;28;20177;-81
2022/08/19 11:20:23;;;;;;;9.90;5.93;;;20.60;99.90;;;;;;5034570;28;20783;-89
2022/08/19 11:22:48;;;;;;;9.20;7.37;;;20.60;99.90;;;;;;5034501;28;20463;-86
2022/08/19 11:25:13;;;;;;;10.00;5.80;;;20.70;99.90;;;;;;5034383;28;20992;-88
2022/08/19 11:27:43;;;;;;;10.40;7.00;;;20.70;99.90;;;;;;5034603;28;20180;-87
2022/08/19 11:30:10;;;;;;;10.10;8.97;;;20.70;99.90;;;;;;5033961;28;20535;-84
2022/08/19 11:32:36;;;;;;;10.47;6.20;;;20.70;99.90;;;;;;5034363;28;20821;-81
2022/08/19 11:35:01;;;;;;;10.53;5.97;;;20.70;99.90;;;;;;5034350;28;20506;-82
2022/08/19 11:37:27;;;;;;;10.20;7.00;;;20.80;99.90;;;;;;5034452;28;20201;-83
2022/08/19 11:39:53;;;;;;;13.03;7.53;;;21.00;99.90;;;;;;5034330;28;20180;-83
2022/08/19 11:45:03;;;;;;;11.70;7.77;;;21.00;99.90;;;;;;5033503;28;20902;-81
2022/08/19 11:47:30;;;;;;;10.20;7.20;;;20.90;99.90;;;;;;5034181;28;20420;-82
2022/08/19 11:49:56;;;;;;;11.00;6.53;;;20.90;99.90;;;;;;5033817;28;20430;-81
2022/08/19 11:52:21;;;;;;;9.77;8.13;;;21.00;99.90;;;;;;5033810;28;20416;-85
2022/08/19 11:54:47;;;;;;;10.20;8.77;;;21.00;99.90;;;;;;5033909;28;20197;-82
2022/08/19 11:57:14;;;;;;;13.50;8.40;;;21.00;99.90;;;;;;5033756;28;20246;-83
2022/08/19 11:59:40;;;;;;;14.07;7.27;;;21.10;99.90;;;;;;5033452;28;20185;-83
2022/08/19 12:02:05;;;;;;;10.13;7.53;;;21.10;99.90;;;;;;5033735;28;20481;-82
2022/08/19 12:04:31;;;;;;;9.40;7.10;;;21.30;99.90;;;;;;5033696;28;20203;-80
2022/08/19 12:06:56;;;;;;;11.13;7.77;;;21.50;99.90;;;;;;5033651;28;20168;-85
2022/08/19 12:09:22;;;;;;;8.30;7.37;;;21.60;99.90;;;;;;5033495;28;20184;-84
2022/08/19 12:11:47;;;;;;;9.37;7.57;;;21.80;99.90;;;;;;5033425;28;20247;-80
2022/08/19 12:14:13;;;;;;;9.60;7.57;;;22.00;99.90;;;;;;5032998;28;20715;-81
2022/08/19 12:16:40;;;;;;;11.03;8.27;;;22.00;99.90;;;;;;5033580;28;20654;-80
2022/08/19 12:19:05;;;;;;;9.40;7.87;;;22.00;99.90;;;;;;5033511;28;20827;-83
2022/08/19 12:21:33;;;;;;;13.77;8.50;;;21.90;99.90;;;;;;5033582;28;20416;-80
2022/08/19 12:24:01;;;;;;;11.80;7.40;;;21.70;99.90;;;;;;5031975;28;20572;-80
2022/08/19 12:26:28;;;;;;;7.40;6.07;;;21.60;99.90;;;;;;5033416;28;20762;-80
2022/08/19 12:28:54;;;;;;;9.07;7.07;;;21.60;99.90;;;;;;5032928;28;20519;-85
2022/08/19 12:31:20;;;;;;;9.27;7.83;;;21.60;99.90;;;;;;5032003;28;20589;-87
2022/08/19 12:33:46;;;;;;;10.67;8.07;;;21.50;99.90;;;;;;5033413;28;20177;-90
2022/08/19 12:36:14;;;;;;;9.50;7.40;;;21.50;99.90;;;;;;5034029;28;20169;-91
2022/08/19 12:38:40;;;;;;;10.07;6.87;;;21.70;99.90;;;;;;5009158;28;20475;-90
2022/08/19 12:41:07;;;;;;;9.90;6.10;;;21.80;99.90;;;;;;5005436;28;20954;-89
2022/08/19 12:43:34;;;;;;;10.13;7.90;;;21.70;99.90;;;;;;5014408;28;20262;-86
2022/08/19 12:46:00;;;;;;;8.23;4.90;;;21.80;99.90;;;;;;5012450;28;20413;-85
2022/08/19 12:48:25;;;;;;;9.37;6.57;;;21.90;99.90;;;;;;5013838;28;20483;-90
2022/08/19 12:50:51;;;;;;;10.40;6.30;;;22.10;99.90;;;;;;5015582;28;20228;-85
2022/08/19 12:53:17;;;;;;;9.67;6.90;;;22.40;99.90;;;;;;5013729;28;20186;-89
2022/08/19 12:55:43;;;;;;;10.93;6.70;;;22.70;99.90;;;;;;5013880;28;20166;-87
2022/08/19 12:58:09;;;;;;;9.27;6.63;;;23.00;99.90;;;;;;5011829;28;20584;-90
2022/08/19 13:00:35;;;;;;;9.33;7.10;;;23.40;99.90;;;;;;5013400;28;20579;-89
2022/08/19 13:03:01;;;;;;;8.23;5.73;;;23.50;99.90;;;;;;5013129;28;20516;-88
2022/08/19 13:05:30;;;;;;;7.63;6.60;;;23.50;99.90;;;;;;5013444;28;20167;-88